Time;durP1;ratioP1;P1;durP2;ratioP2;P2;SDS_P1;SDS_P2;PMS_P1;PMS_P2;Temp;Humidity;BMP_temperature;BMP_pressure;BME280_temperature;BME280_humidity;BME280_pressure;Samples;Min_cycle;Max_cycle;Signal;HPM_P1;HPM_P2
2022/04/25 00:01:56;;;;;;;13.90;6.80;;;8.30;99.90;;;;;;5103269;28;20061;-48
2022/04/25 00:04:21;;;;;;;13.75;7.60;;;8.30;99.90;;;;;;5099567;28;20106;-51
2022/04/25 00:06:47;;;;;;;12.00;6.95;;;8.30;99.90;;;;;;5097693;28;20035;-48
2022/04/25 00:09:12;;;;;;;16.52;7.95;;;8.30;99.90;;;;;;5090932;28;20031;-48
2022/04/25 00:11:39;;;;;;;9.18;6.60;;;8.30;99.90;;;;;;5105724;28;20031;-51
2022/04/25 00:14:06;;;;;;;11.88;8.02;;;8.30;99.90;;;;;;5107808;28;20016;-49
2022/04/25 00:16:32;;;;;;;10.57;6.53;;;8.30;99.90;;;;;;5107860;28;20553;-49
2022/04/25 00:18:58;;;;;;;11.88;7.75;;;8.20;99.90;;;;;;5106554;28;20119;-51
2022/04/25 00:21:23;;;;;;;11.73;6.30;;;8.20;99.90;;;;;;5101884;28;20019;-48
2022/04/25 00:23:49;;;;;;;10.77;6.53;;;8.20;99.90;;;;;;5100585;28;20024;-47
2022/04/25 00:26:14;;;;;;;12.05;7.20;;;8.10;99.90;;;;;;5106530;28;20110;-49
2022/04/25 00:28:40;;;;;;;10.20;7.93;;;8.10;99.90;;;;;;5107729;28;20020;-48
2022/04/25 00:31:05;;;;;;;16.85;6.10;;;8.00;99.90;;;;;;5107380;28;20023;-49
2022/04/25 00:33:31;;;;;;;10.93;7.03;;;7.90;99.90;;;;;;5107094;28;20024;-50
2022/04/25 00:35:57;;;;;;;10.68;7.30;;;7.80;99.90;;;;;;5089776;28;20304;-48
2022/04/25 00:38:22;;;;;;;13.25;7.63;;;7.80;99.90;;;;;;5093231;28;20024;-47
2022/04/25 00:40:48;;;;;;;13.50;7.50;;;7.70;99.90;;;;;;5087227;28;20028;-48
2022/04/25 00:43:14;;;;;;;10.32;7.10;;;7.70;99.90;;;;;;5086509;28;20086;-48
2022/04/25 00:45:40;;;;;;;11.35;7.35;;;7.70;99.90;;;;;;5087498;28;20020;-50
2022/04/25 00:48:06;;;;;;;14.88;7.95;;;7.60;99.90;;;;;;5086893;28;20032;-49
2022/04/25 00:50:32;;;;;;;11.35;7.97;;;7.60;99.90;;;;;;5087264;28;20020;-51
2022/04/25 00:52:58;;;;;;;12.55;7.85;;;7.60;99.90;;;;;;5086265;28;20027;-49
2022/04/25 00:55:24;;;;;;;13.52;8.40;;;7.60;99.90;;;;;;5086751;28;20032;-48
2022/04/25 00:57:51;;;;;;;15.45;8.52;;;7.60;99.90;;;;;;5081346;28;20096;-48
2022/04/25 01:00:17;;;;;;;15.18;9.30;;;7.60;99.90;;;;;;5093452;28;20024;-51
2022/04/25 01:02:42;;;;;;;21.98;10.45;;;7.60;99.90;;;;;;5106372;28;20264;-48
2022/04/25 01:05:09;;;;;;;20.88;10.07;;;7.50;99.90;;;;;;5107186;28;20388;-48
2022/04/25 01:07:36;;;;;;;23.67;12.25;;;7.50;99.90;;;;;;5108917;28;20173;-47
2022/04/25 01:10:04;;;;;;;18.85;10.50;;;7.50;99.90;;;;;;5109853;28;20031;-48
2022/04/25 01:12:30;;;;;;;31.90;11.38;;;7.50;99.90;;;;;;5109071;28;20061;-48
2022/04/25 01:15:07;;;;;;;21.80;11.50;;;7.50;99.90;;;;;;5111393;28;20104;-50
2022/04/25 01:17:33;;;;;;;23.60;11.05;;;7.40;99.90;;;;;;5111271;28;20070;-48
2022/04/25 01:19:59;;;;;;;27.55;12.93;;;7.40;99.90;;;;;;5111683;28;20055;-47
2022/04/25 01:22:32;;;;;;;20.90;11.07;;;7.40;99.90;;;;;;5110054;28;20024;-48
2022/04/25 01:27:43;;;;;;;22.90;12.38;;;7.50;99.90;;;;;;5103718;28;20443;-49
2022/04/25 01:30:09;;;;;;;26.80;12.48;;;7.50;99.90;;;;;;5095304;28;20020;-48
2022/04/25 01:32:37;;;;;;;26.63;11.75;;;7.50;99.90;;;;;;5069351;28;20021;-48
2022/04/25 01:35:04;;;;;;;23.88;11.48;;;7.50;99.90;;;;;;5072275;28;20221;-47
2022/04/25 01:37:31;;;;;;;22.27;12.63;;;7.40;99.90;;;;;;5080924;28;20102;-48
2022/04/25 01:39:57;;;;;;;25.65;12.50;;;7.40;99.90;;;;;;5087464;28;20106;-47
2022/04/25 01:42:23;;;;;;;28.67;13.57;;;7.40;99.90;;;;;;5078361;28;20028;-48
2022/04/25 01:44:50;;;;;;;22.85;13.38;;;7.50;99.90;;;;;;5077759;28;20052;-48
2022/04/25 01:47:16;;;;;;;23.27;11.90;;;7.40;99.90;;;;;;5078658;28;20024;-49
2022/04/25 01:49:42;;;;;;;23.70;12.57;;;7.40;99.90;;;;;;5080439;28;20397;-49
2022/04/25 01:52:28;;;;;;;24.67;12.10;;;7.40;99.90;;;;;;5079035;28;20029;-49
2022/04/25 01:54:54;;;;;;;17.73;11.50;;;7.40;99.90;;;;;;5079670;28;20512;-47
2022/04/25 01:57:20;;;;;;;22.20;12.07;;;7.40;99.90;;;;;;5078545;28;20025;-48
2022/04/25 01:59:45;;;;;;;29.67;12.52;;;7.40;99.90;;;;;;5078008;28;20505;-48
2022/04/25 02:02:12;;;;;;;25.65;12.48;;;7.50;99.90;;;;;;5076909;28;20052;-47
2022/04/25 02:04:39;;;;;;;23.38;12.30;;;7.50;99.90;;;;;;5090644;28;20430;-48
2022/04/25 02:07:06;;;;;;;22.42;11.43;;;7.50;99.90;;;;;;5076308;28;20077;-48
2022/04/25 02:09:32;;;;;;;24.33;12.02;;;7.50;99.90;;;;;;5082719;28;20028;-48
2022/04/25 02:11:57;;;;;;;23.20;11.93;;;7.40;99.90;;;;;;5082586;28;20028;-48
2022/04/25 02:14:23;;;;;;;18.75;11.32;;;7.50;99.90;;;;;;5078059;28;20413;-48
2022/04/25 02:16:48;;;;;;;22.75;11.77;;;7.40;99.90;;;;;;5084090;28;20065;-47
2022/04/25 02:19:14;;;;;;;18.58;11.20;;;7.50;99.90;;;;;;5078767;28;20077;-48
2022/04/25 02:21:40;;;;;;;20.08;10.98;;;7.50;99.90;;;;;;5080746;28;20166;-48
2022/04/25 02:24:05;;;;;;;21.95;11.52;;;7.40;99.90;;;;;;5081143;28;20431;-48
2022/04/25 02:26:31;;;;;;;20.48;11.38;;;7.50;99.90;;;;;;5078978;28;20028;-48
2022/04/25 02:28:57;;;;;;;19.33;11.65;;;7.50;99.90;;;;;;5077954;28;20510;-48
2022/04/25 02:31:26;;;;;;;23.67;12.40;;;7.50;99.90;;;;;;5077564;28;20032;-50
2022/04/25 02:33:51;;;;;;;23.25;12.52;;;7.50;99.90;;;;;;5076883;28;20228;-48
2022/04/25 02:36:17;;;;;;;28.38;13.18;;;7.40;99.90;;;;;;5079794;28;20020;-48
2022/04/25 02:38:42;;;;;;;21.50;12.57;;;7.40;99.90;;;;;;5081787;28;20025;-48
2022/04/25 02:41:11;;;;;;;24.40;12.98;;;7.40;99.90;;;;;;5079014;28;20098;-48
2022/04/25 02:43:39;;;;;;;21.55;12.30;;;7.40;99.90;;;;;;5078501;28;20052;-48
2022/04/25 02:46:09;;;;;;;25.33;12.93;;;7.50;99.90;;;;;;5077489;28;20028;-48
2022/04/25 02:48:35;;;;;;;25.55;12.30;;;7.50;99.90;;;;;;5077960;28;20030;-49
2022/04/25 02:51:05;;;;;;;24.85;12.85;;;7.40;99.90;;;;;;5079119;28;20099;-49
2022/04/25 02:53:31;;;;;;;23.95;12.93;;;7.30;99.90;;;;;;5076258;28;20351;-47
2022/04/25 02:55:58;;;;;;;24.67;12.30;;;7.30;99.90;;;;;;5077481;28;20124;-49
2022/04/25 02:58:24;;;;;;;21.90;11.80;;;7.30;99.90;;;;;;5078965;28;20016;-48
2022/04/25 03:00:51;;;;;;;22.40;12.13;;;7.30;99.90;;;;;;5077820;28;20093;-47
2022/04/25 03:03:18;;;;;;;26.77;13.20;;;7.30;99.90;;;;;;5073923;28;20414;-48
2022/04/25 03:05:46;;;;;;;22.42;12.90;;;7.30;99.90;;;;;;5100529;28;20080;-49
2022/04/25 03:08:13;;;;;;;26.13;11.20;;;7.40;99.90;;;;;;5108851;28;20032;-48
2022/04/25 03:10:40;;;;;;;26.27;12.80;;;7.30;99.90;;;;;;5107621;28;20026;-48
2022/04/25 03:13:06;;;;;;;20.55;13.15;;;7.30;99.90;;;;;;5108562;28;20377;-48
2022/04/25 03:15:33;;;;;;;20.35;11.25;;;7.30;99.90;;;;;;5094949;28;20019;-47
2022/04/25 03:17:59;;;;;;;21.95;11.75;;;7.20;99.90;;;;;;5100324;28;20065;-48
2022/04/25 03:20:25;;;;;;;23.85;11.82;;;7.30;99.90;;;;;;5108796;28;20028;-51
2022/04/25 03:22:50;;;;;;;23.10;11.55;;;7.20;99.90;;;;;;5108235;28;20028;-48
2022/04/25 03:25:16;;;;;;;20.15;11.63;;;7.10;99.90;;;;;;5108804;28;20026;-48
2022/04/25 03:27:42;;;;;;;23.27;12.07;;;7.10;99.90;;;;;;5108709;28;20066;-47
2022/04/25 03:30:08;;;;;;;17.58;10.85;;;7.10;99.90;;;;;;5107794;28;20222;-48
2022/04/25 03:32:34;;;;;;;21.15;12.93;;;7.10;99.90;;;;;;5107880;28;20044;-48
2022/04/25 03:35:03;;;;;;;21.20;12.00;;;7.10;99.90;;;;;;5107276;28;20028;-48
2022/04/25 03:37:34;;;;;;;25.02;11.55;;;7.10;99.90;;;;;;5106778;28;20035;-48
2022/04/25 03:40:00;;;;;;;19.80;12.13;;;7.10;99.90;;;;;;5108354;28;20019;-48
2022/04/25 03:42:25;;;;;;;19.58;12.63;;;7.10;99.90;;;;;;5106071;28;20035;-48
2022/04/25 03:44:51;;;;;;;20.70;11.88;;;7.00;99.90;;;;;;5099884;28;20028;-48
2022/04/25 03:47:17;;;;;;;18.75;11.45;;;7.10;99.90;;;;;;5095082;28;20024;-49
2022/04/25 03:49:43;;;;;;;21.02;12.45;;;7.10;99.90;;;;;;5108324;28;20423;-48
2022/04/25 03:52:09;;;;;;;29.10;13.05;;;7.10;99.90;;;;;;5099529;28;20470;-48
2022/04/25 03:57:20;;;;;;;20.48;11.27;;;7.10;99.90;;;;;;5116899;27;20038;-48
2022/04/25 03:59:46;;;;;;;19.83;11.73;;;7.00;99.90;;;;;;5108244;28;20027;-48
2022/04/25 04:02:11;;;;;;;20.25;11.90;;;7.00;99.90;;;;;;5084154;28;20421;-48
2022/04/25 04:04:37;;;;;;;26.10;12.15;;;7.10;99.90;;;;;;5079405;28;20602;-49
2022/04/25 04:07:02;;;;;;;18.27;10.98;;;7.00;99.90;;;;;;5101431;28;20039;-48
2022/04/25 04:09:47;;;;;;;20.80;10.43;;;7.10;99.90;;;;;;5103463;28;20110;-48
2022/04/25 04:12:13;;;;;;;18.33;10.45;;;7.00;99.90;;;;;;5085369;28;20025;-50
2022/04/25 04:14:40;;;;;;;18.50;10.55;;;7.00;99.90;;;;;;5077057;28;20020;-48
2022/04/25 04:17:08;;;;;;;16.63;10.93;;;7.00;99.90;;;;;;5070205;28;20016;-48
2022/04/25 04:19:37;;;;;;;16.40;10.25;;;7.00;99.90;;;;;;5068474;28;20104;-48
2022/04/25 04:22:04;;;;;;;17.77;8.75;;;7.00;99.90;;;;;;5087226;28;20024;-48
2022/04/25 04:24:34;;;;;;;14.52;10.50;;;7.00;99.90;;;;;;5088343;28;20501;-48
2022/04/25 04:27:03;;;;;;;17.08;9.93;;;7.00;99.90;;;;;;5072506;28;20511;-48
2022/04/25 04:29:30;;;;;;;14.05;8.95;;;7.00;99.90;;;;;;5068260;28;20060;-49
2022/04/25 04:32:01;;;;;;;17.88;10.05;;;6.90;99.90;;;;;;5082929;28;20062;-49
2022/04/25 04:34:27;;;;;;;13.65;9.77;;;7.00;99.90;;;;;;5088191;28;20047;-48
2022/04/25 04:36:53;;;;;;;17.17;10.48;;;7.00;99.90;;;;;;5073067;28;20032;-48
2022/04/25 04:39:18;;;;;;;22.00;10.40;;;7.00;99.90;;;;;;5075517;28;20394;-49
2022/04/25 04:41:44;;;;;;;13.85;10.02;;;7.00;99.90;;;;;;5094125;28;20544;-47
2022/04/25 04:44:10;;;;;;;14.77;9.20;;;7.00;99.90;;;;;;5072541;28;20031;-48
2022/04/25 04:46:36;;;;;;;15.43;9.98;;;7.00;99.90;;;;;;5072024;28;20028;-48
2022/04/25 04:49:01;;;;;;;19.35;9.52;;;7.00;99.90;;;;;;5071942;28;20389;-48
2022/04/25 04:51:27;;;;;;;13.20;9.30;;;7.00;99.90;;;;;;5070771;28;20024;-48
2022/04/25 04:53:52;;;;;;;14.73;9.60;;;6.90;99.90;;;;;;5070277;28;20541;-48
2022/04/25 04:56:18;;;;;;;20.52;10.07;;;6.90;99.90;;;;;;5071676;28;20025;-49
2022/04/25 04:58:43;;;;;;;19.63;11.48;;;6.90;99.90;;;;;;5079453;28;20035;-48
2022/04/25 05:01:09;;;;;;;21.38;11.25;;;7.00;99.90;;;;;;5080725;28;20035;-48
2022/04/25 05:03:35;;;;;;;17.33;10.05;;;7.00;99.90;;;;;;5084520;28;20030;-49
2022/04/25 05:06:00;;;;;;;18.13;10.88;;;7.00;99.90;;;;;;5088636;28;20485;-51
2022/04/25 05:08:26;;;;;;;22.30;10.95;;;7.00;99.90;;;;;;5081972;28;20097;-48
2022/04/25 05:10:54;;;;;;;19.92;10.75;;;7.00;99.90;;;;;;5080346;28;20028;-49
2022/04/25 05:13:20;;;;;;;24.60;11.60;;;7.00;99.90;;;;;;5081548;28;20372;-49
2022/04/25 05:15:46;;;;;;;13.32;9.73;;;7.00;99.90;;;;;;5075712;28;20025;-49
2022/04/25 05:18:12;;;;;;;16.33;9.88;;;7.00;99.90;;;;;;5077907;28;20047;-49
2022/04/25 05:20:37;;;;;;;20.65;10.90;;;7.00;99.90;;;;;;5083230;28;20044;-48
2022/04/25 05:23:03;;;;;;;17.13;9.88;;;7.00;99.90;;;;;;5082580;28;20049;-49
2022/04/25 05:25:29;;;;;;;15.85;9.50;;;7.00;99.90;;;;;;5085522;28;20020;-50
2022/04/25 05:27:55;;;;;;;16.08;9.73;;;7.00;99.90;;;;;;5080470;28;20024;-49
2022/04/25 05:30:23;;;;;;;23.42;10.43;;;7.10;99.90;;;;;;5084680;28;20042;-47
2022/04/25 05:32:49;;;;;;;17.98;10.73;;;7.00;99.90;;;;;;5076240;28;20039;-48
2022/04/25 05:35:17;;;;;;;15.20;9.65;;;7.00;99.90;;;;;;5085103;28;20059;-51
2022/04/25 05:37:44;;;;;;;22.00;11.13;;;7.00;99.90;;;;;;5080375;28;20024;-48
2022/04/25 05:40:11;;;;;;;17.73;9.93;;;7.00;99.90;;;;;;5081358;28;20031;-49
2022/04/25 05:42:38;;;;;;;17.65;10.10;;;7.10;99.90;;;;;;5085186;27;20024;-49
2022/04/25 05:45:04;;;;;;;16.55;9.20;;;7.00;99.90;;;;;;5071584;28;20507;-48
2022/04/25 05:47:31;;;;;;;17.70;11.18;;;7.00;99.90;;;;;;5078711;28;20115;-50
2022/04/25 05:52:41;;;;;;;21.13;10.38;;;7.10;99.90;;;;;;5069299;28;20028;-47
2022/04/25 05:55:07;;;;;;;15.20;9.82;;;7.10;99.90;;;;;;5070689;28;20040;-47
2022/04/25 05:57:32;;;;;;;24.60;10.77;;;7.10;99.90;;;;;;5070420;28;20086;-46
2022/04/25 05:59:58;;;;;;;20.13;10.90;;;7.20;99.90;;;;;;5075956;28;20554;-47
2022/04/25 06:02:23;;;;;;;22.08;10.60;;;7.10;99.90;;;;;;5072106;28;20048;-47
2022/04/25 06:04:48;;;;;;;22.50;11.27;;;7.20;99.90;;;;;;5091632;28;20028;-45
2022/04/25 06:07:14;;;;;;;23.33;11.20;;;7.20;99.90;;;;;;5092037;28;20699;-46
2022/04/25 06:09:39;;;;;;;22.13;10.68;;;7.20;99.90;;;;;;5082295;28;20024;-47
2022/04/25 06:12:05;;;;;;;21.50;11.27;;;7.20;99.90;;;;;;5072237;28;20386;-47
2022/04/25 06:14:31;;;;;;;22.63;12.02;;;7.20;99.90;;;;;;5080552;28;20099;-46
2022/04/25 06:16:59;;;;;;;21.63;11.82;;;7.20;99.90;;;;;;5087044;28;20047;-46
2022/04/25 06:19:25;;;;;;;18.02;10.30;;;7.20;99.90;;;;;;5072220;28;20036;-47
2022/04/25 06:21:50;;;;;;;19.33;10.50;;;7.20;99.90;;;;;;5078417;28;20031;-46
2022/04/25 06:24:16;;;;;;;19.40;11.20;;;7.30;99.90;;;;;;5090532;28;20031;-46
2022/04/25 06:26:42;;;;;;;20.65;12.07;;;7.30;99.90;;;;;;5084021;28;20043;-47
2022/04/25 06:29:07;;;;;;;29.15;11.50;;;7.40;99.90;;;;;;5081905;28;20141;-47
2022/04/25 06:31:33;;;;;;;22.95;11.27;;;7.40;99.90;;;;;;5076483;28;20025;-46
2022/04/25 06:33:58;;;;;;;20.70;10.40;;;7.40;99.90;;;;;;5076869;28;20032;-48
2022/04/25 06:36:25;;;;;;;27.65;11.05;;;7.40;99.90;;;;;;5080536;28;20020;-47
2022/04/25 06:38:50;;;;;;;20.08;10.48;;;7.40;99.90;;;;;;5090315;28;20060;-46
2022/04/25 06:41:16;;;;;;;21.15;11.32;;;7.50;99.90;;;;;;5083211;28;20553;-47
2022/04/25 06:43:42;;;;;;;20.05;10.85;;;7.50;99.90;;;;;;5067974;28;20036;-46
2022/04/25 06:46:07;;;;;;;16.58;9.95;;;7.50;99.90;;;;;;5070152;28;20445;-46
2022/04/25 06:48:33;;;;;;;17.13;10.50;;;7.50;99.90;;;;;;5077964;28;20024;-46
2022/04/25 06:50:58;;;;;;;18.75;10.40;;;7.50;99.90;;;;;;5075152;28;20382;-47
2022/04/25 06:53:24;;;;;;;23.90;10.68;;;7.50;99.90;;;;;;5067977;28;20023;-47
2022/04/25 06:55:50;;;;;;;21.58;11.57;;;7.50;99.90;;;;;;5067109;28;20051;-47
2022/04/25 06:58:15;;;;;;;20.98;10.15;;;7.50;99.90;;;;;;5068465;28;20390;-48
2022/04/25 07:00:42;;;;;;;25.23;10.98;;;7.50;99.90;;;;;;5074664;28;20020;-38
2022/04/25 07:03:07;;;;;;;25.08;11.98;;;7.50;99.90;;;;;;5071421;28;20090;-38
2022/04/25 07:05:33;;;;;;;16.40;9.45;;;7.60;99.90;;;;;;5069735;28;20359;-38
2022/04/25 07:07:58;;;;;;;23.08;10.68;;;7.60;99.90;;;;;;5069602;28;20064;-38
2022/04/25 07:10:24;;;;;;;20.08;10.48;;;7.60;99.90;;;;;;5070234;28;20086;-38
2022/04/25 07:12:49;;;;;;;19.33;10.10;;;7.60;99.90;;;;;;5088983;28;20024;-38
2022/04/25 07:15:15;;;;;;;21.77;11.00;;;7.80;99.90;;;;;;5089701;28;20100;-38
2022/04/25 07:17:41;;;;;;;20.80;10.57;;;7.80;99.90;;;;;;5089549;28;20070;-38
2022/04/25 07:20:07;;;;;;;16.75;9.95;;;7.80;99.90;;;;;;5067834;28;20409;-39
2022/04/25 07:30:45;;;;;;;19.88;9.75;;;7.80;99.90;;;;;;5075255;28;20085;-38
2022/04/25 07:33:10;;;;;;;16.17;9.68;;;7.80;99.90;;;;;;5088812;28;20020;-38
2022/04/25 07:35:36;;;;;;;19.38;9.88;;;7.80;99.90;;;;;;5089241;28;20551;-39
2022/04/25 07:38:02;;;;;;;20.95;10.85;;;7.80;99.90;;;;;;5089273;28;20080;-38
2022/04/25 07:40:28;;;;;;;24.23;9.85;;;7.90;99.90;;;;;;5084876;28;20020;-38
2022/04/25 07:42:57;;;;;;;20.00;10.02;;;7.90;99.90;;;;;;5087827;28;20035;-38
2022/04/25 07:45:23;;;;;;;17.23;9.85;;;8.00;99.90;;;;;;5087819;28;20035;-39
2022/04/25 07:47:48;;;;;;;20.67;10.05;;;8.00;99.90;;;;;;5089077;28;20016;-39
2022/04/25 07:50:16;;;;;;;16.25;8.23;;;8.10;99.90;;;;;;5087235;28;20031;-39
2022/04/25 07:52:41;;;;;;;16.52;9.75;;;8.10;99.90;;;;;;5071545;28;20013;-39
2022/04/25 07:55:08;;;;;;;15.18;9.23;;;8.20;99.90;;;;;;5094151;28;20110;-39
2022/04/25 07:57:34;;;;;;;18.95;10.02;;;8.20;99.90;;;;;;5089379;28;20016;-38
2022/04/25 08:00:00;;;;;;;18.85;10.40;;;8.20;99.90;;;;;;5072326;28;20097;-38
2022/04/25 08:02:25;;;;;;;18.83;10.27;;;8.20;99.90;;;;;;5067997;28;20024;-38
2022/04/25 08:04:51;;;;;;;21.95;10.63;;;8.20;99.90;;;;;;5067187;28;20465;-38
2022/04/25 08:07:17;;;;;;;21.58;10.40;;;8.20;99.90;;;;;;5068585;28;20055;-38
2022/04/25 08:09:42;;;;;;;18.48;10.98;;;8.20;99.90;;;;;;5068500;28;20103;-38
2022/04/25 08:17:59;;;;;;;16.80;10.75;;;8.30;99.90;;;;;;5068637;28;20561;-38
2022/04/25 08:20:28;;;;;;;20.88;11.35;;;8.30;99.90;;;;;;5083142;28;20020;-38
2022/04/25 08:22:54;;;;;;;19.33;10.82;;;8.40;99.90;;;;;;5082682;28;20151;-37
2022/04/25 08:25:19;;;;;;;23.23;11.55;;;8.30;99.90;;;;;;5088844;28;20027;-38
2022/04/25 08:27:45;;;;;;;21.73;11.60;;;8.40;99.90;;;;;;5088531;28;20040;-38
2022/04/25 08:30:13;;;;;;;29.27;10.88;;;8.40;99.90;;;;;;5079702;28;20082;-38
2022/04/25 08:32:39;;;;;;;25.67;12.23;;;8.30;99.90;;;;;;5064922;28;20025;-38
2022/04/25 08:35:05;;;;;;;25.65;11.65;;;8.20;99.90;;;;;;5065556;28;20124;-38
2022/04/25 08:37:30;;;;;;;22.67;10.80;;;8.20;99.90;;;;;;5066542;28;20033;-38
2022/04/25 08:39:56;;;;;;;14.73;9.98;;;8.20;99.90;;;;;;5067936;28;20400;-38
2022/04/25 08:42:21;;;;;;;17.45;10.30;;;8.30;99.90;;;;;;5074141;28;20032;-38
2022/04/25 08:44:50;;;;;;;18.58;9.68;;;8.30;99.90;;;;;;5093467;28;20028;-38
2022/04/25 08:47:16;;;;;;;17.27;9.90;;;8.40;99.90;;;;;;5088402;28;20024;-38
2022/04/25 08:49:42;;;;;;;16.20;10.05;;;8.40;99.90;;;;;;5078754;28;20417;-38
2022/04/25 08:52:09;;;;;;;20.02;10.73;;;8.50;99.90;;;;;;5077508;28;20039;-38
2022/04/25 08:54:35;;;;;;;18.45;10.23;;;8.50;99.90;;;;;;5076666;28;20099;-37
2022/04/25 08:57:03;;;;;;;17.85;9.40;;;8.60;99.90;;;;;;5075551;28;20466;-37
2022/04/25 08:59:31;;;;;;;18.25;10.60;;;8.60;99.90;;;;;;5073480;28;20500;-39
2022/04/25 09:01:57;;;;;;;16.42;10.48;;;8.70;99.90;;;;;;5075744;28;20036;-38
2022/04/25 09:04:23;;;;;;;17.50;10.63;;;8.70;99.90;;;;;;5087697;28;20027;-39
2022/04/25 09:06:51;;;;;;;13.85;9.88;;;8.60;99.90;;;;;;5087646;28;20195;-39
2022/04/25 09:09:17;;;;;;;20.27;10.55;;;8.70;99.90;;;;;;5088368;28;20033;-39
2022/04/25 09:14:27;;;;;;;20.17;11.25;;;8.70;99.90;;;;;;5068018;28;20128;-39
2022/04/25 09:16:53;;;;;;;18.35;10.40;;;8.80;99.90;;;;;;5068074;28;20103;-39
2022/04/25 09:19:19;;;;;;;20.25;11.77;;;8.80;99.90;;;;;;5075951;28;20038;-39
2022/04/25 09:21:45;;;;;;;20.88;12.15;;;8.70;99.90;;;;;;5076318;28;20111;-39
2022/04/25 09:24:21;;;;;;;23.52;10.60;;;8.70;99.90;;;;;;5077083;28;20028;-39
2022/04/25 09:26:50;;;;;;;18.98;11.55;;;8.80;99.90;;;;;;5077978;28;20496;-39
2022/04/25 09:29:24;;;;;;;17.38;11.10;;;8.90;99.90;;;;;;5079828;28;20343;-38
2022/04/25 09:31:49;;;;;;;18.67;11.30;;;8.90;99.90;;;;;;5079761;28;20036;-38
2022/04/25 09:34:16;;;;;;;16.42;10.85;;;8.90;99.90;;;;;;5083387;28;20490;-38
2022/04/25 09:36:48;;;;;;;16.23;10.15;;;9.00;99.90;;;;;;5079242;28;20017;-39
2022/04/25 09:39:28;;;;;;;17.98;10.20;;;9.10;99.90;;;;;;5079354;28;20028;-39
2022/04/25 09:41:53;;;;;;;23.52;10.10;;;9.20;99.90;;;;;;5081353;28;20061;-39
2022/04/25 09:44:19;;;;;;;18.15;10.68;;;9.20;99.90;;;;;;5086493;28;20449;-39
2022/04/25 09:46:48;;;;;;;15.05;10.38;;;9.30;99.90;;;;;;5079374;28;20039;-39
2022/04/25 09:49:20;;;;;;;16.15;9.93;;;9.40;99.90;;;;;;5079646;28;20107;-38
2022/04/25 09:51:59;;;;;;;20.50;10.65;;;9.50;99.90;;;;;;5076777;28;20027;-47
2022/04/25 09:54:25;;;;;;;15.50;9.65;;;9.50;99.90;;;;;;5079072;28;20017;-47
2022/04/25 09:56:51;;;;;;;14.60;8.93;;;9.40;99.90;;;;;;5081921;28;20016;-47
2022/04/25 09:59:18;;;;;;;18.58;9.93;;;9.50;99.90;;;;;;5081174;28;20056;-47
2022/04/25 10:01:45;;;;;;;18.23;10.07;;;9.60;99.90;;;;;;5080745;28;20035;-46
2022/04/25 10:04:33;;;;;;;18.23;9.30;;;9.50;99.90;;;;;;5079687;28;20524;-46
2022/04/25 10:07:00;;;;;;;13.15;8.60;;;9.50;99.90;;;;;;5081315;28;20027;-46
2022/04/25 10:09:30;;;;;;;16.95;9.70;;;9.70;99.90;;;;;;5076944;28;20324;-48
2022/04/25 10:11:59;;;;;;;13.95;9.43;;;9.80;99.90;;;;;;5078417;28;20021;-49
2022/04/25 10:14:26;;;;;;;12.48;8.98;;;9.90;99.90;;;;;;5082419;28;20193;-47
2022/04/25 10:16:54;;;;;;;13.25;8.45;;;10.10;99.90;;;;;;5090664;28;20026;-47
2022/04/25 10:19:21;;;;;;;12.90;8.82;;;10.20;99.90;;;;;;5091021;28;20070;-47
2022/04/25 10:21:47;;;;;;;21.73;9.15;;;10.30;99.90;;;;;;5089958;28;20420;-48
2022/04/25 10:24:15;;;;;;;17.45;9.73;;;10.20;99.90;;;;;;5088765;28;20392;-47
2022/04/25 10:26:40;;;;;;;15.40;9.32;;;10.20;99.90;;;;;;5089304;28;20473;-48
2022/04/25 10:29:13;;;;;;;14.23;8.68;;;10.20;99.90;;;;;;5082514;28;20225;-48
2022/04/25 10:31:42;;;;;;;14.60;8.77;;;10.20;99.90;;;;;;5069591;28;20013;-51
2022/04/25 10:34:09;;;;;;;12.23;8.15;;;10.30;99.90;;;;;;5070194;28;20029;-48
2022/04/25 10:36:38;;;;;;;16.13;8.80;;;10.50;99.90;;;;;;5070116;28;20021;-48
2022/04/25 10:39:17;;;;;;;11.40;8.07;;;10.70;99.90;;;;;;5079983;28;20028;-50
2022/04/25 10:44:42;;;;;;;13.63;7.22;;;11.00;99.90;;;;;;5074887;28;20125;-47
2022/04/25 10:47:11;;;;;;;17.45;8.77;;;11.00;99.90;;;;;;5077341;28;20107;-48
2022/04/25 10:49:42;;;;;;;15.57;8.18;;;11.00;99.90;;;;;;5080567;28;20016;-48
2022/04/25 10:52:43;;;;;;;13.55;8.05;;;11.20;99.90;;;;;;5078016;28;20029;-47
2022/04/25 10:55:31;;;;;;;11.05;8.57;;;11.30;99.90;;;;;;5080061;28;20097;-47
2022/04/25 10:58:03;;;;;;;13.77;8.77;;;11.40;99.90;;;;;;5080396;28;20024;-48
2022/04/25 11:00:37;;;;;;;16.75;8.65;;;11.50;99.90;;;;;;5079754;28;20042;-47
2022/04/25 11:03:16;;;;;;;15.52;8.88;;;11.60;99.90;;;;;;5076588;28;20133;-48
2022/04/25 11:05:51;;;;;;;12.57;8.23;;;11.30;99.90;;;;;;5079674;28;20020;-46
2022/04/25 11:08:17;;;;;;;11.38;8.80;;;11.40;99.90;;;;;;5077702;28;20024;-46
2022/04/25 11:10:47;;;;;;;9.88;7.03;;;11.60;99.90;;;;;;5078100;28;20025;-46
2022/04/25 11:13:15;;;;;;;14.73;8.23;;;11.60;99.90;;;;;;5079020;28;20645;-46
2022/04/25 11:15:47;;;;;;;14.13;8.18;;;11.90;99.90;;;;;;5078581;28;20021;-46
2022/04/25 11:18:33;;;;;;;15.63;8.80;;;12.00;99.90;;;;;;5077444;28;20100;-52
2022/04/25 11:21:07;;;;;;;12.68;8.70;;;12.10;99.90;;;;;;5076534;28;20029;-46
2022/04/25 11:23:51;;;;;;;16.33;8.02;;;12.20;99.90;;;;;;5077392;28;20078;-46
2022/04/25 11:26:26;;;;;;;11.52;7.60;;;12.30;99.90;;;;;;5074102;28;20047;-48
2022/04/25 11:28:54;;;;;;;11.77;7.40;;;12.40;99.90;;;;;;5084340;28;20489;-47
2022/04/25 11:31:21;;;;;;;15.55;7.22;;;12.50;99.90;;;;;;5079733;28;20043;-45
2022/04/25 11:33:49;;;;;;;12.77;8.45;;;12.90;99.90;;;;;;5077062;28;20035;-49
2022/04/25 11:36:14;;;;;;;11.80;7.80;;;13.00;99.90;;;;;;5078664;28;20092;-47
2022/04/25 11:41:30;;;;;;;11.00;7.13;;;13.30;99.90;;;;;;5077325;28;20269;-46
2022/04/25 11:43:57;;;;;;;12.75;6.97;;;14.00;99.90;;;;;;5075046;28;20047;-48
2022/04/25 11:46:25;;;;;;;10.05;6.45;;;15.10;99.90;;;;;;5079288;28;20081;-46
2022/04/25 11:48:52;;;;;;;9.10;6.25;;;16.60;99.90;;;;;;5076761;28;20036;-46
2022/04/25 11:51:32;;;;;;;8.88;5.80;;;17.50;98.60;;;;;;5075060;28;20023;-49
2022/04/25 11:54:04;;;;;;;10.27;6.40;;;19.90;90.20;;;;;;5077993;28;20481;-46
2022/04/25 11:56:31;;;;;;;6.22;4.57;;;21.10;81.10;;;;;;5079589;28;20024;-47
2022/04/25 11:58:58;;;;;;;7.95;5.05;;;21.40;77.40;;;;;;5082513;28;20402;-49
2022/04/25 12:01:36;;;;;;;7.05;5.22;;;21.40;77.70;;;;;;5078955;28;20025;-48
2022/04/25 12:04:16;;;;;;;7.93;5.40;;;21.00;77.30;;;;;;5078938;28;20405;-48
2022/04/25 12:06:58;;;;;;;;;;;20.80;72.80;;;;;;5077648;28;20426;-45
2022/04/25 12:17:51;;;;;;;7.75;6.50;;;19.50;76.30;;;;;;5088585;28;20062;-48
2022/04/25 12:20:29;;;;;;;10.07;6.47;;;19.30;76.50;;;;;;5088776;28;20028;-47
2022/04/25 12:23:00;;;;;;;8.80;7.03;;;18.50;77.50;;;;;;5087557;28;20036;-48
2022/04/25 12:25:32;;;;;;;11.00;6.57;;;18.30;82.40;;;;;;5088673;28;20039;-47
2022/04/25 12:28:02;;;;;;;10.73;6.13;;;18.20;81.90;;;;;;5088798;28;20047;-46
2022/04/25 12:30:30;;;;;;;8.93;5.80;;;17.90;85.00;;;;;;5069739;28;20397;-45
2022/04/25 12:33:07;;;;;;;9.48;6.15;;;18.00;86.20;;;;;;5065302;28;20059;-46
2022/04/25 12:35:33;;;;;;;11.10;6.43;;;18.40;87.90;;;;;;5087384;28;20103;-50
2022/04/25 12:37:59;;;;;;;8.68;6.63;;;18.30;86.10;;;;;;5088421;28;20095;-47
2022/04/25 12:40:25;;;;;;;9.30;6.35;;;18.50;81.20;;;;;;5088372;28;20035;-47
2022/04/25 12:42:54;;;;;;;8.57;7.10;;;18.30;82.90;;;;;;5087195;28;20493;-48
2022/04/25 12:45:20;;;;;;;13.82;6.70;;;18.20;82.20;;;;;;5071358;28;20036;-47
2022/04/25 12:47:53;;;;;;;9.95;6.47;;;18.00;86.30;;;;;;5079130;28;20032;-47
2022/04/25 12:50:42;;;;;;;9.07;6.13;;;18.30;89.20;;;;;;5083316;28;20024;-51
2022/04/25 12:53:11;;;;;;;9.13;6.10;;;18.60;84.00;;;;;;5087491;28;20036;-48
2022/04/25 12:55:44;;;;;;;6.75;6.03;;;18.50;85.70;;;;;;5088466;28;20257;-47
2022/04/25 12:58:10;;;;;;;7.95;6.20;;;18.40;85.10;;;;;;5074970;28;20024;-47
2022/04/25 13:00:43;;;;;;;7.40;5.80;;;18.40;87.00;;;;;;5068129;28;20504;-48
2022/04/25 13:03:10;;;;;;;9.02;6.30;;;18.70;85.90;;;;;;5070130;28;20431;-47
2022/04/25 13:05:36;;;;;;;10.63;6.47;;;18.70;84.00;;;;;;5070600;28;20025;-48
2022/04/25 13:08:02;;;;;;;9.68;6.57;;;18.80;81.80;;;;;;5071782;28;20052;-50
2022/04/25 13:10:27;;;;;;;6.70;5.72;;;18.90;81.90;;;;;;5070967;28;20047;-48
2022/04/25 13:12:55;;;;;;;11.63;6.22;;;18.60;80.50;;;;;;5070941;28;20024;-48
2022/04/25 13:15:31;;;;;;;7.88;6.22;;;18.70;85.20;;;;;;5081244;28;20020;-50
2022/04/25 13:17:56;;;;;;;9.52;6.90;;;18.70;82.30;;;;;;5086036;28;20107;-47
2022/04/25 13:20:25;;;;;;;6.97;5.55;;;18.50;81.70;;;;;;5090305;28;20111;-47
2022/04/25 13:22:51;;;;;;;5.20;4.70;;;18.30;85.30;;;;;;5089912;28;20102;-48